Terminal Aerodrome Forecast
Issued by NWS Wilmington, OH

Current Version | Previous Version | Graphics & Text | Print | Product List | Glossary On
Versions: 1 2 3 4 5 6 7 8 9 10 11 12 13 14 15 16 17 18 19 20 21 22 23 24 25
000
FTUS41 KILN 040404 AAC
TAFILN
TAF AMD
KILN 040404Z 0404/0424 24003KT P6SM SCT060
     FM040600 VRB03KT 5SM BR VCTS SCT040CB BKN120
     FM041300 22007KT P6SM VCTS BKN040CB=

USA.gov is the U.S. government's official web portal to all federal, state and local government web resources and services.